createdAt,value
2019-06-07T06:00:28.426Z,688.00
2019-06-07T06:01:53.392Z,688.00
2019-06-07T06:02:29.381Z,696.00
2019-06-07T06:03:28.390Z,644.00
2019-06-07T06:04:28.532Z,684.00
2019-06-07T06:05:34.367Z,692.00
2019-06-07T06:06:29.338Z,672.00
2019-06-07T06:07:28.397Z,684.00
2019-06-07T06:08:28.319Z,676.00
2019-06-07T06:09:28.305Z,660.00
2019-06-07T06:10:28.298Z,724.00
2019-06-07T06:11:43.098Z,620.00
2019-06-07T06:12:35.318Z,620.00
2019-06-07T06:13:29.260Z,692.00
2019-06-07T06:14:28.257Z,624.00
2019-06-07T06:15:42.474Z,616.00
2019-06-07T06:16:29.271Z,640.00
2019-06-07T06:17:28.239Z,624.00
2019-06-07T06:18:28.254Z,640.00
2019-06-07T06:19:28.196Z,688.00
2019-06-07T06:20:33.221Z,748.00
2019-06-07T06:21:29.233Z,780.00
2019-06-07T06:22:28.175Z,740.00
2019-06-07T06:23:28.157Z,788.00
2019-06-07T06:24:28.143Z,748.00
2019-06-07T06:25:32.611Z,780.00
2019-06-07T06:26:29.150Z,756.00
2019-06-07T06:28:03.379Z,740.00
2019-06-07T06:28:29.100Z,684.00
2019-06-07T06:29:28.113Z,744.00
2019-06-07T06:30:28.084Z,636.00
2019-06-07T06:31:28.167Z,692.00
2019-06-07T06:32:41.657Z,828.00
2019-06-07T06:33:34.522Z,844.00
2019-06-07T06:34:29.046Z,708.00
2019-06-07T06:35:28.031Z,748.00
2019-06-07T06:36:28.075Z,748.00
2019-06-07T06:37:28.014Z,808.00
2019-06-07T06:38:28.022Z,796.00
2019-06-07T06:39:27.985Z,768.00
2019-06-07T06:40:27.975Z,776.00
2019-06-07T06:41:27.984Z,788.00
2019-06-07T06:42:27.948Z,728.00
2019-06-07T06:43:27.980Z,796.00
2019-06-07T06:44:27.928Z,812.00
2019-06-07T06:45:27.916Z,916.00
2019-06-07T06:46:38.715Z,980.00
2019-06-07T06:47:28.899Z,1020.00
2019-06-07T06:48:27.924Z,956.00
2019-06-07T06:49:27.879Z,928.00
2019-06-07T06:50:27.864Z,920.00
2019-06-07T06:51:27.854Z,896.00
2019-06-07T06:52:27.843Z,816.00
2019-06-07T06:53:27.854Z,840.00
2019-06-07T06:54:40.248Z,908.00
2019-06-07T06:55:28.856Z,1024.00
2019-06-07T06:56:27.821Z,1020.00
2019-06-07T06:57:27.967Z,772.00
2019-06-07T06:58:27.800Z,848.00
2019-06-07T06:59:38.802Z,988.00
2019-06-07T07:00:43.489Z,1060.00
2019-06-07T07:01:28.749Z,960.00
2019-06-07T07:02:27.778Z,1100.00
2019-06-07T07:04:03.991Z,868.00
2019-06-07T07:04:28.722Z,764.00
2019-06-07T07:05:27.711Z,856.00
2019-06-07T07:06:27.699Z,796.00
2019-06-07T07:07:27.744Z,772.00
2019-06-07T07:08:27.700Z,744.00
2019-06-07T07:09:27.666Z,732.00
2019-06-07T07:10:27.671Z,808.00
2019-06-07T07:11:27.651Z,720.00
2019-06-07T07:12:27.631Z,816.00
2019-06-07T07:13:27.682Z,720.00
2019-06-07T07:14:27.701Z,940.00
2019-06-07T07:15:27.601Z,904.00
2019-06-07T07:16:27.590Z,872.00
2019-06-07T07:17:47.914Z,776.00
2019-06-07T07:18:28.572Z,820.00
2019-06-07T07:19:27.564Z,904.00
2019-06-07T07:20:27.588Z,996.00
2019-06-07T07:21:27.541Z,932.00
2019-06-07T07:22:27.527Z,828.00
2019-06-07T07:23:27.523Z,936.00
2019-06-07T07:24:29.125Z,832.00
2019-06-07T07:25:27.543Z,976.00
2019-06-07T07:26:27.485Z,1008.00
2019-06-07T07:27:27.475Z,968.00
2019-06-07T07:28:27.468Z,972.00
2019-06-07T07:29:27.464Z,900.00
2019-06-07T07:30:36.792Z,928.00
2019-06-07T07:31:28.429Z,924.00
2019-06-07T07:32:27.426Z,944.00
2019-06-07T07:34:19.958Z,936.00
2019-06-07T07:34:35.483Z,960.00
2019-06-07T07:35:28.437Z,964.00
2019-06-07T07:36:38.621Z,864.00
2019-06-07T07:37:28.468Z,820.00
2019-06-07T07:38:27.370Z,940.00
2019-06-07T07:39:27.352Z,1040.00
2019-06-07T07:41:28.358Z,1052.00
2019-06-07T07:42:27.311Z,1104.00
2019-06-07T07:43:27.323Z,1064.00
2019-06-07T07:44:27.314Z,976.00
2019-06-07T07:45:27.276Z,1180.00
2019-06-07T07:46:29.746Z,1000.00
2019-06-07T07:47:27.262Z,1128.00
2019-06-07T07:48:27.259Z,988.00
2019-06-07T07:49:27.234Z,996.00
2019-06-07T07:50:27.305Z,980.00
2019-06-07T07:51:27.243Z,996.00
2019-06-07T07:52:27.260Z,1032.00
2019-06-07T07:53:45.360Z,988.00
2019-06-07T07:54:28.186Z,1016.00
2019-06-07T07:55:27.327Z,1004.00
2019-06-07T07:56:27.160Z,1032.00
2019-06-07T07:57:27.176Z,1044.00
2019-06-07T07:58:27.184Z,1052.00
2019-06-07T07:59:41.156Z,1020.00
2019-06-07T08:01:28.133Z,1096.00
2019-06-07T08:02:27.097Z,1116.00
2019-06-07T08:03:27.102Z,1092.00
2019-06-07T08:05:12.395Z,1008.00
2019-06-07T08:05:41.955Z,1008.00
2019-06-07T08:06:28.049Z,1028.00
2019-06-07T08:07:27.231Z,1004.00
2019-06-07T08:08:27.043Z,1020.00
2019-06-07T08:09:27.051Z,1012.00
2019-06-07T08:10:27.029Z,1096.00
2019-06-07T08:11:26.995Z,1208.00
2019-06-07T08:12:27.025Z,1040.00
2019-06-07T08:13:27.888Z,1032.00
2019-06-07T08:14:26.961Z,1036.00
2019-06-07T08:15:26.967Z,1252.00
2019-06-07T08:16:26.935Z,1100.00
2019-06-07T08:17:26.957Z,1260.00
2019-06-07T08:18:26.935Z,1104.00
2019-06-07T08:19:26.908Z,1236.00
2019-06-07T08:20:26.892Z,1072.00
2019-06-07T08:21:27.397Z,1132.00
2019-06-07T08:22:26.891Z,1076.00
2019-06-07T08:23:26.882Z,1104.00
2019-06-07T08:24:26.868Z,1132.00
2019-06-07T08:25:26.840Z,1120.00
2019-06-07T08:26:26.853Z,1064.00
2019-06-07T08:27:27.117Z,1112.00
2019-06-07T08:28:26.807Z,1200.00
2019-06-07T08:29:43.830Z,1316.00
2019-06-07T08:31:27.800Z,1224.00
2019-06-07T08:32:26.765Z,1120.00
2019-06-07T08:33:27.195Z,1104.00
2019-06-07T08:34:26.798Z,1080.00
2019-06-07T08:36:41.351Z,1252.00
2019-06-07T08:38:13.467Z,1120.00
2019-06-07T08:38:46.464Z,1152.00
2019-06-07T08:39:27.700Z,1212.00
2019-06-07T08:40:26.678Z,1112.00
2019-06-07T08:41:26.684Z,1088.00
2019-06-07T08:42:36.836Z,1068.00
2019-06-07T08:43:27.672Z,1168.00
2019-06-07T08:44:26.637Z,1172.00
2019-06-07T08:45:26.623Z,1108.00
2019-06-07T08:46:26.604Z,1088.00
2019-06-07T08:47:26.595Z,1136.00
2019-06-07T08:48:28.338Z,1228.00
2019-06-07T08:49:26.605Z,1188.00
2019-06-07T08:50:26.590Z,1216.00
2019-06-07T08:51:26.550Z,1296.00
2019-06-07T08:52:26.537Z,1236.00
2019-06-07T08:53:26.529Z,1100.00
2019-06-07T08:54:26.545Z,1108.00
2019-06-07T08:55:26.569Z,1080.00
2019-06-07T08:56:26.509Z,1236.00
2019-06-07T08:57:26.482Z,1216.00
2019-06-07T08:58:26.474Z,1160.00
2019-06-07T08:59:26.474Z,1168.00
2019-06-07T09:00:45.450Z,1256.00
2019-06-07T09:01:27.437Z,1092.00
2019-06-07T09:02:26.434Z,1148.00
2019-06-07T09:03:26.422Z,1200.00
2019-06-07T09:04:26.402Z,1116.00
2019-06-07T09:05:26.416Z,1264.00
2019-06-07T09:07:02.654Z,1068.00
2019-06-07T09:07:27.373Z,1220.00
2019-06-07T09:08:30.558Z,1104.00
2019-06-07T09:09:26.360Z,1104.00
2019-06-07T09:10:26.390Z,1056.00
2019-06-07T09:11:26.328Z,1148.00
2019-06-07T09:12:26.321Z,1044.00
2019-06-07T09:13:26.333Z,1272.00
2019-06-07T09:14:26.359Z,1028.00
2019-06-07T09:15:26.293Z,1088.00
2019-06-07T09:16:26.282Z,1076.00
2019-06-07T09:17:26.274Z,1064.00
2019-06-07T09:18:44.417Z,1184.00
2019-06-07T09:19:27.243Z,1052.00
2019-06-07T09:20:35.770Z,1132.00
2019-06-07T09:21:27.235Z,1044.00
2019-06-07T09:22:26.234Z,1100.00
2019-06-07T09:23:26.233Z,1084.00
2019-06-07T09:24:26.189Z,1072.00
2019-06-07T09:25:26.178Z,1096.00
2019-06-07T09:26:26.168Z,992.00
2019-06-07T09:27:26.246Z,1100.00
2019-06-07T09:28:26.189Z,1100.00
2019-06-07T09:29:26.152Z,1168.00
2019-06-07T09:30:26.121Z,1100.00
2019-06-07T09:31:48.805Z,1100.00
2019-06-07T09:32:27.114Z,1104.00
2019-06-07T09:33:26.119Z,1112.00
2019-06-07T09:34:26.116Z,1088.00
2019-06-07T09:35:26.071Z,1060.00
2019-06-07T09:36:26.057Z,1092.00
2019-06-07T09:38:27.243Z,1036.00
2019-06-07T09:39:26.054Z,1028.00
2019-06-07T09:40:27.914Z,1076.00
2019-06-07T09:41:46.268Z,1088.00
2019-06-07T09:42:26.992Z,1108.00
2019-06-07T09:44:27.046Z,1124.00
2019-06-07T09:45:25.969Z,1068.00
2019-06-07T09:46:25.948Z,1104.00
2019-06-07T09:47:32.552Z,976.00
2019-06-07T09:49:09.284Z,1048.00
2019-06-07T09:49:32.732Z,1004.00
2019-06-07T09:50:27.015Z,1076.00
2019-06-07T09:51:25.914Z,1024.00
2019-06-07T09:52:25.886Z,1100.00
2019-06-07T09:53:25.873Z,1068.00
2019-06-07T09:55:04.119Z,1000.00
2019-06-07T09:55:26.903Z,1072.00
2019-06-07T09:56:25.915Z,1100.00
2019-06-07T09:57:25.832Z,1044.00
2019-06-07T09:59:26.810Z,1264.00
2019-06-07T10:00:42.829Z,1144.00
2019-06-07T10:01:26.816Z,1088.00
2019-06-07T10:02:25.825Z,1136.00
2019-06-07T10:03:25.764Z,1088.00
2019-06-07T10:04:31.266Z,1288.00
2019-06-07T10:05:26.773Z,1212.00
2019-06-07T10:06:25.760Z,1152.00
2019-06-07T10:07:31.947Z,1132.00
2019-06-07T10:09:42.449Z,1364.00
2019-06-07T10:10:09.189Z,1144.00
2019-06-07T10:11:25.681Z,1104.00
2019-06-07T10:12:25.702Z,1108.00
2019-06-07T10:13:25.659Z,1216.00
2019-06-07T10:14:25.650Z,1116.00
2019-06-07T10:15:25.635Z,1104.00
2019-06-07T10:16:25.625Z,1072.00
2019-06-07T10:17:25.657Z,1068.00
2019-06-07T10:18:25.603Z,1072.00
2019-06-07T10:19:25.596Z,1088.00
2019-06-07T10:20:25.601Z,1096.00
2019-06-07T10:21:25.603Z,1140.00
2019-06-07T10:22:25.562Z,1388.00
2019-06-07T10:23:25.565Z,1060.00
2019-06-07T10:24:25.540Z,1052.00
2019-06-07T10:25:25.527Z,1092.00
2019-06-07T10:26:25.545Z,1108.00
2019-06-07T10:27:25.508Z,1116.00
2019-06-07T10:28:25.497Z,1156.00
2019-06-07T10:29:25.523Z,1052.00
2019-06-07T10:30:25.590Z,1108.00
2019-06-07T10:31:25.498Z,1028.00
2019-06-07T10:32:25.460Z,1108.00
2019-06-07T10:33:25.454Z,1004.00
2019-06-07T10:34:25.468Z,1028.00
2019-06-07T10:35:25.424Z,1040.00
2019-06-07T10:36:25.409Z,992.00
2019-06-07T10:37:25.410Z,992.00
2019-06-07T10:38:25.420Z,1036.00
2019-06-07T10:39:25.401Z,984.00
2019-06-07T10:40:25.369Z,992.00
2019-06-07T10:41:25.356Z,1004.00
2019-06-07T10:42:25.362Z,1180.00
2019-06-07T10:43:25.381Z,1160.00
2019-06-07T10:44:25.367Z,944.00
2019-06-07T10:45:25.332Z,1112.00
2019-06-07T10:46:25.307Z,1000.00
2019-06-07T10:47:25.328Z,980.00
2019-06-07T10:48:25.294Z,1008.00
2019-06-07T10:49:25.286Z,1084.00
2019-06-07T10:50:25.261Z,1136.00
2019-06-07T10:51:25.255Z,1172.00
2019-06-07T10:52:25.279Z,1228.00
2019-06-07T10:53:25.234Z,1376.00
2019-06-07T10:54:30.290Z,1392.00
2019-06-07T10:55:26.226Z,1616.00
2019-06-07T10:56:25.205Z,1628.00
2019-06-07T10:57:25.222Z,1760.00
2019-06-07T10:58:25.174Z,2108.00
2019-06-07T10:59:25.184Z,2160.00
2019-06-07T11:00:25.152Z,2004.00
2019-06-07T11:01:25.154Z,2020.00
2019-06-07T11:02:25.142Z,1384.00
2019-06-07T11:03:25.131Z,1160.00
2019-06-07T11:04:25.141Z,1152.00
2019-06-07T11:05:25.107Z,1172.00
2019-06-07T11:06:25.098Z,1184.00
2019-06-07T11:07:25.085Z,1172.00
2019-06-07T11:08:25.082Z,1476.00
2019-06-07T11:09:25.098Z,1276.00
2019-06-07T11:10:25.052Z,1328.00
2019-06-07T11:11:25.039Z,1504.00
2019-06-07T11:12:25.058Z,1536.00
2019-06-07T11:13:25.014Z,1888.00
2019-06-07T11:14:25.031Z,2332.00
2019-06-07T11:15:24.992Z,2344.00
2019-06-07T11:16:25.027Z,3304.00
2019-06-07T11:17:25.030Z,2464.00
2019-06-07T11:18:24.970Z,9668.00
2019-06-07T11:19:24.977Z,7084.00
2019-06-07T11:20:24.977Z,1904.00
2019-06-07T11:21:24.937Z,1612.00
2019-06-07T11:22:24.923Z,1508.00
2019-06-07T11:23:24.925Z,1604.00
2019-06-07T11:24:24.966Z,1676.00
2019-06-07T11:25:25.024Z,1908.00
2019-06-07T11:26:24.928Z,1672.00
2019-06-07T11:27:24.867Z,1416.00
2019-06-07T11:28:24.861Z,2096.00
2019-06-07T11:29:24.844Z,1480.00
2019-06-07T11:30:25.156Z,1164.00
2019-06-07T11:31:24.835Z,992.00
2019-06-07T11:32:24.817Z,1016.00
2019-06-07T11:33:24.837Z,972.00
2019-06-07T11:34:24.801Z,864.00
2019-06-07T11:35:24.786Z,928.00
2019-06-07T11:36:24.775Z,984.00
2019-06-07T11:37:24.814Z,988.00
2019-06-07T11:38:24.749Z,1052.00
2019-06-07T11:39:24.739Z,1464.00
2019-06-07T11:40:33.974Z,1204.00
2019-06-07T11:41:25.717Z,1332.00
2019-06-07T11:42:25.135Z,1492.00
2019-06-07T11:43:24.737Z,1264.00
2019-06-07T11:44:25.617Z,1448.00
2019-06-07T11:45:24.725Z,1624.00
2019-06-07T11:46:24.702Z,1332.00
2019-06-07T11:47:24.652Z,1372.00
2019-06-07T11:48:24.641Z,1288.00
2019-06-07T11:49:24.672Z,1584.00
2019-06-07T11:50:24.626Z,1644.00
2019-06-07T11:51:24.615Z,1656.00
2019-06-07T11:52:25.136Z,1884.00
2019-06-07T11:53:24.589Z,1364.00
2019-06-07T11:54:24.577Z,1224.00
2019-06-07T11:55:24.566Z,1156.00
2019-06-07T11:56:24.581Z,1632.00
2019-06-07T11:57:24.602Z,1364.00
2019-06-07T11:58:24.539Z,1272.00
2019-06-07T11:59:24.526Z,1240.00
2019-06-07T12:00:24.512Z,1124.00
2019-06-07T12:01:24.549Z,1068.00
2019-06-07T12:02:24.503Z,1084.00
2019-06-07T12:03:24.475Z,1220.00
2019-06-07T12:04:34.508Z,1380.00
2019-06-07T12:05:25.461Z,1156.00
2019-06-07T12:06:24.468Z,1180.00
2019-06-07T12:07:24.438Z,956.00
2019-06-07T12:08:24.432Z,1196.00
2019-06-07T12:09:27.962Z,1024.00
2019-06-07T12:10:24.405Z,1000.00
2019-06-07T12:11:24.404Z,1260.00
2019-06-07T12:12:24.416Z,1104.00
2019-06-07T12:13:26.962Z,1000.00
2019-06-07T12:14:24.364Z,1204.00
2019-06-07T12:15:24.389Z,1040.00
2019-06-07T12:16:24.346Z,1096.00
2019-06-07T12:17:24.404Z,1356.00
2019-06-07T12:18:24.355Z,1196.00
2019-06-07T12:19:24.314Z,956.00
2019-06-07T12:20:24.305Z,988.00
2019-06-07T12:21:24.354Z,1032.00
2019-06-07T12:22:24.326Z,1164.00
2019-06-07T12:23:24.310Z,1068.00
2019-06-07T12:24:26.132Z,1108.00
2019-06-07T12:25:25.139Z,1212.00
2019-06-07T12:26:24.262Z,2424.00
2019-06-07T12:27:24.253Z,1304.00
2019-06-07T12:28:24.217Z,816.00
2019-06-07T12:29:24.202Z,916.00
2019-06-07T12:30:27.713Z,956.00
2019-06-07T12:31:24.204Z,916.00
2019-06-07T12:32:24.186Z,1016.00
2019-06-07T12:33:25.064Z,920.00
2019-06-07T12:34:24.219Z,924.00
2019-06-07T12:35:24.139Z,972.00
2019-06-07T12:36:24.203Z,976.00
2019-06-07T12:37:42.065Z,940.00
2019-06-07T12:38:25.112Z,1108.00
2019-06-07T12:39:24.102Z,1260.00
2019-06-07T12:40:30.119Z,1016.00
2019-06-07T12:41:25.141Z,1032.00
2019-06-07T12:42:24.066Z,1100.00
2019-06-07T12:43:24.054Z,924.00
2019-06-07T12:44:24.114Z,980.00
2019-06-07T12:45:43.976Z,924.00
2019-06-07T12:46:28.479Z,848.00
2019-06-07T12:47:24.018Z,880.00
2019-06-07T12:48:26.083Z,980.00
2019-06-07T12:49:24.023Z,936.00
2019-06-07T12:50:41.889Z,988.00
2019-06-07T12:51:24.971Z,1044.00
2019-06-07T12:52:24.663Z,908.00
2019-06-07T12:53:27.610Z,900.00
2019-06-07T12:54:23.959Z,844.00
2019-06-07T12:55:24.854Z,804.00
2019-06-07T12:56:24.305Z,820.00
2019-06-07T12:57:24.219Z,816.00
2019-06-07T12:58:32.598Z,908.00
2019-06-07T12:59:24.905Z,800.00
2019-06-07T13:00:24.499Z,788.00
2019-06-07T13:01:24.841Z,800.00
2019-06-07T13:02:25.437Z,860.00
2019-06-07T13:03:24.536Z,908.00
2019-06-07T13:04:24.997Z,976.00
2019-06-07T13:05:23.976Z,1004.00
2019-06-07T13:06:23.808Z,988.00
2019-06-07T13:07:24.257Z,1064.00
2019-06-07T13:08:23.981Z,1176.00
2019-06-07T13:09:24.038Z,1380.00
2019-06-07T13:10:24.105Z,1188.00
2019-06-07T13:11:28.266Z,1900.00
2019-06-07T13:12:24.741Z,1388.00
2019-06-07T13:13:24.585Z,10508.00
2019-06-07T13:14:24.140Z,6568.00
2019-06-07T13:15:25.810Z,956.00
2019-06-07T13:16:24.241Z,940.00
2019-06-07T13:17:24.187Z,852.00
2019-06-07T13:18:25.171Z,868.00
2019-06-07T13:19:24.435Z,876.00
2019-06-07T13:20:24.678Z,932.00
2019-06-07T13:21:24.638Z,936.00
2019-06-07T13:22:24.423Z,812.00
2019-06-07T13:23:24.398Z,816.00
2019-06-07T13:24:25.215Z,772.00
2019-06-07T13:25:30.114Z,752.00
2019-06-07T13:26:25.359Z,728.00
2019-06-07T13:27:24.519Z,812.00
2019-06-07T13:28:24.786Z,836.00
2019-06-07T13:29:25.109Z,724.00
2019-06-07T13:30:25.443Z,824.00
2019-06-07T13:31:23.535Z,1796.00
2019-06-07T13:32:23.778Z,976.00
2019-06-07T13:33:24.204Z,372.00
2019-06-07T13:34:24.289Z,820.00
2019-06-07T13:35:23.829Z,916.00
2019-06-07T13:36:24.417Z,860.00
2019-06-07T13:37:23.525Z,860.00
2019-06-07T13:38:24.323Z,844.00
2019-06-07T13:39:27.528Z,960.00
2019-06-07T13:40:25.120Z,872.00
2019-06-07T13:41:36.374Z,932.00
2019-06-07T13:42:24.799Z,868.00
2019-06-07T13:43:23.516Z,864.00
2019-06-07T13:44:24.963Z,804.00
2019-06-07T13:45:24.298Z,832.00
2019-06-07T13:46:23.394Z,836.00
2019-06-07T13:47:23.394Z,708.00
2019-06-07T13:48:23.469Z,668.00
2019-06-07T13:49:23.709Z,700.00
2019-06-07T13:50:24.081Z,652.00
2019-06-07T13:51:25.184Z,648.00
2019-06-07T13:52:23.315Z,716.00
2019-06-07T13:53:24.935Z,680.00
2019-06-07T13:54:24.718Z,672.00
2019-06-07T13:55:24.009Z,668.00
2019-06-07T13:56:24.010Z,684.00
2019-06-07T13:57:24.356Z,660.00
2019-06-07T13:58:24.225Z,656.00
2019-06-07T13:59:24.530Z,664.00
2019-06-07T14:00:24.784Z,664.00
2019-06-07T14:01:24.510Z,676.00
2019-06-07T14:02:23.989Z,736.00
2019-06-07T14:03:27.215Z,720.00
2019-06-07T14:04:26.925Z,756.00
2019-06-07T14:05:23.205Z,800.00
2019-06-07T14:06:24.949Z,600.00
2019-06-07T14:07:26.352Z,720.00
2019-06-07T14:08:23.337Z,732.00
2019-06-07T14:09:23.320Z,712.00
2019-06-07T14:10:23.654Z,692.00
2019-06-07T14:11:23.643Z,692.00
2019-06-07T14:12:24.144Z,684.00
2019-06-07T14:13:23.649Z,836.00
2019-06-07T14:14:25.035Z,676.00
2019-06-07T14:15:24.364Z,720.00
2019-06-07T14:16:24.297Z,732.00
2019-06-07T14:17:23.304Z,772.00
2019-06-07T14:18:24.321Z,804.00
2019-06-07T14:19:24.351Z,828.00
2019-06-07T14:20:26.775Z,800.00
2019-06-07T14:21:24.617Z,896.00
2019-06-07T14:22:23.003Z,872.00
2019-06-07T14:23:40.154Z,980.00
2019-06-07T14:24:25.137Z,852.00
2019-06-07T14:25:23.093Z,884.00
2019-06-07T14:26:23.251Z,832.00
2019-06-07T14:27:23.404Z,700.00
2019-06-07T14:28:26.470Z,776.00
2019-06-07T14:29:23.917Z,680.00
2019-06-07T14:30:23.943Z,612.00
2019-06-07T14:31:24.578Z,596.00
2019-06-07T14:32:24.835Z,560.00
2019-06-07T14:33:25.206Z,504.00
2019-06-07T14:34:24.229Z,512.00
2019-06-07T14:35:24.455Z,468.00
2019-06-07T14:36:22.850Z,448.00
2019-06-07T14:37:22.918Z,468.00
2019-06-07T14:38:23.150Z,460.00
2019-06-07T14:39:23.081Z,424.00
2019-06-07T14:40:23.203Z,392.00
2019-06-07T14:41:23.227Z,356.00
2019-06-07T14:42:23.404Z,296.00
2019-06-07T14:43:23.175Z,276.00
2019-06-07T14:44:23.557Z,236.00
2019-06-07T14:45:23.578Z,228.00
2019-06-07T14:46:23.538Z,212.00
2019-06-07T14:47:23.792Z,220.00
2019-06-07T14:48:23.831Z,240.00
2019-06-07T14:49:24.152Z,308.00
2019-06-07T14:50:24.090Z,388.00
2019-06-07T14:51:24.119Z,460.00
2019-06-07T14:52:22.676Z,536.00
2019-06-07T14:53:22.683Z,496.00
2019-06-07T14:54:22.703Z,548.00
2019-06-07T14:55:22.685Z,604.00
2019-06-07T14:56:22.660Z,608.00
2019-06-07T14:57:22.673Z,712.00
2019-06-07T14:58:22.642Z,716.00
2019-06-07T14:59:22.634Z,736.00
2019-06-07T15:00:22.593Z,724.00
2019-06-07T15:01:22.608Z,692.00
2019-06-07T15:02:22.644Z,660.00
2019-06-07T15:03:22.638Z,620.00
2019-06-07T15:04:22.547Z,576.00
2019-06-07T15:05:22.573Z,536.00
2019-06-07T15:06:22.554Z,468.00
2019-06-07T15:07:22.521Z,436.00
2019-06-07T15:08:22.509Z,396.00
2019-06-07T15:09:22.493Z,360.00
2019-06-07T15:10:22.482Z,336.00
2019-06-07T15:11:22.631Z,332.00
2019-06-07T15:12:25.376Z,284.00
2019-06-07T15:13:22.443Z,260.00
2019-06-07T15:14:22.503Z,204.00
2019-06-07T15:15:22.482Z,180.00
2019-06-07T15:16:22.446Z,160.00
2019-06-07T15:17:22.457Z,156.00
2019-06-07T15:18:22.404Z,156.00
2019-06-07T15:19:24.222Z,160.00
2019-06-07T15:20:22.484Z,164.00
2019-06-07T15:21:22.610Z,148.00
2019-06-07T15:22:22.459Z,144.00
2019-06-07T15:23:22.640Z,144.00
2019-06-07T15:24:22.337Z,172.00
2019-06-07T15:25:22.625Z,192.00
2019-06-07T15:26:22.314Z,212.00
2019-06-07T15:27:22.443Z,228.00
2019-06-07T15:28:22.334Z,260.00
2019-06-07T15:29:23.099Z,284.00
2019-06-07T15:30:22.269Z,320.00
2019-06-07T15:31:22.261Z,340.00
2019-06-07T15:32:22.276Z,336.00
2019-06-07T15:33:22.284Z,344.00
2019-06-07T15:34:22.252Z,356.00
2019-06-07T15:35:22.221Z,360.00
2019-06-07T15:36:22.230Z,356.00
2019-06-07T15:37:22.215Z,372.00
2019-06-07T15:38:22.224Z,356.00
2019-06-07T15:39:22.191Z,344.00
2019-06-07T15:40:24.374Z,336.00
2019-06-07T15:41:22.156Z,408.00
2019-06-07T15:42:22.135Z,384.00
2019-06-07T15:43:23.065Z,348.00
2019-06-07T15:44:22.122Z,300.00
2019-06-07T15:45:22.148Z,300.00
2019-06-07T15:46:22.118Z,312.00
2019-06-07T15:47:22.120Z,368.00
2019-06-07T15:48:22.083Z,332.00
2019-06-07T15:49:22.088Z,316.00
2019-06-07T15:50:23.628Z,312.00
2019-06-07T15:51:22.055Z,368.00
2019-06-07T15:52:22.121Z,388.00
2019-06-07T15:53:22.111Z,764.00
2019-06-07T15:54:22.011Z,708.00
2019-06-07T15:55:22.007Z,560.00
2019-06-07T15:56:22.026Z,556.00
2019-06-07T15:57:21.973Z,488.00
2019-06-07T15:58:21.966Z,452.00
2019-06-07T15:59:21.958Z,680.00
2019-06-07T16:00:21.950Z,828.00
2019-06-07T16:01:21.970Z,688.00
2019-06-07T16:02:21.985Z,756.00
2019-06-07T16:03:21.930Z,980.00
2019-06-07T16:04:22.035Z,1040.00
2019-06-07T16:05:21.946Z,672.00
2019-06-07T16:06:21.937Z,928.00
2019-06-07T16:07:21.898Z,984.00
2019-06-07T16:08:21.862Z,932.00
2019-06-07T16:09:21.848Z,892.00
2019-06-07T16:10:21.843Z,592.00
2019-06-07T16:11:21.824Z,596.00
2019-06-07T16:12:22.134Z,588.00
2019-06-07T16:13:22.011Z,844.00
2019-06-07T16:14:22.130Z,940.00
2019-06-07T16:15:21.792Z,932.00
2019-06-07T16:16:21.773Z,996.00
2019-06-07T16:17:21.779Z,1040.00
2019-06-07T16:18:21.823Z,868.00
2019-06-07T16:19:21.743Z,804.00
2019-06-07T16:20:21.731Z,848.00
2019-06-07T16:21:21.727Z,540.00
2019-06-07T16:22:21.725Z,492.00
2019-06-07T16:23:21.735Z,452.00
2019-06-07T16:24:21.682Z,448.00
2019-06-07T16:25:21.673Z,464.00
2019-06-07T16:26:21.684Z,500.00
2019-06-07T16:27:22.156Z,588.00
2019-06-07T16:28:21.737Z,540.00
2019-06-07T16:29:21.648Z,1160.00
2019-06-07T16:30:21.700Z,1088.00
2019-06-07T16:31:21.608Z,1012.00
2019-06-07T16:32:21.603Z,880.00
2019-06-07T16:33:21.634Z,1016.00
2019-06-07T16:34:21.690Z,1096.00
2019-06-07T16:35:21.703Z,968.00
2019-06-07T16:36:21.555Z,1156.00
2019-06-07T16:37:21.543Z,1284.00
2019-06-07T16:38:21.537Z,1244.00
2019-06-07T16:39:21.569Z,1244.00
2019-06-07T16:40:23.209Z,1292.00
2019-06-07T16:41:21.508Z,1316.00
2019-06-07T16:42:21.577Z,1360.00
2019-06-07T16:43:22.229Z,1408.00
2019-06-07T16:44:21.508Z,1448.00
2019-06-07T16:45:21.487Z,1492.00
2019-06-07T16:46:21.469Z,1488.00
2019-06-07T16:47:24.636Z,1468.00
2019-06-07T16:48:21.508Z,1472.00
2019-06-07T16:49:21.715Z,1444.00
2019-06-07T16:50:21.478Z,1256.00
2019-06-07T16:51:21.404Z,776.00
2019-06-07T16:52:21.407Z,424.00
2019-06-07T16:53:22.210Z,380.00
2019-06-07T16:54:21.630Z,344.00
2019-06-07T16:55:21.475Z,324.00
2019-06-07T16:56:21.697Z,288.00
2019-06-07T16:57:21.359Z,336.00
2019-06-07T16:58:21.322Z,320.00
2019-06-07T16:59:21.354Z,308.00
2019-06-07T17:00:21.295Z,272.00
2019-06-07T17:01:21.288Z,228.00
2019-06-07T17:02:21.277Z,212.00
2019-06-07T17:03:21.286Z,200.00
2019-06-07T17:04:21.299Z,204.00
2019-06-07T17:05:21.247Z,228.00
2019-06-07T17:06:21.306Z,236.00
2019-06-07T17:07:21.236Z,276.00
2019-06-07T17:08:21.243Z,272.00
2019-06-07T17:09:21.455Z,308.00
2019-06-07T17:10:21.361Z,340.00
2019-06-07T17:11:22.156Z,544.00
2019-06-07T17:12:21.214Z,508.00
2019-06-07T17:13:32.962Z,420.00
2019-06-07T17:14:22.312Z,356.00
2019-06-07T17:15:21.136Z,1708.00
2019-06-07T17:16:22.106Z,676.00
2019-06-07T17:17:22.135Z,432.00
2019-06-07T17:18:22.243Z,516.00
2019-06-07T17:19:21.098Z,1332.00
2019-06-07T17:20:21.093Z,808.00
2019-06-07T17:21:21.207Z,516.00
2019-06-07T17:22:21.126Z,1260.00
2019-06-07T17:23:21.320Z,1036.00
2019-06-07T17:24:21.326Z,640.00
2019-06-07T17:25:21.030Z,336.00
2019-06-07T17:26:21.021Z,312.00
2019-06-07T17:27:21.037Z,292.00
2019-06-07T17:28:22.828Z,288.00
2019-06-07T17:29:21.132Z,276.00
2019-06-07T17:30:21.003Z,256.00
2019-06-07T17:31:21.006Z,240.00
2019-06-07T17:32:20.993Z,224.00
2019-06-07T17:33:20.949Z,200.00
2019-06-07T17:34:20.943Z,196.00
2019-06-07T17:35:20.927Z,192.00
2019-06-07T17:36:20.964Z,196.00
2019-06-07T17:37:22.639Z,200.00
2019-06-07T17:38:21.047Z,220.00
2019-06-07T17:39:20.882Z,216.00
2019-06-07T17:40:20.864Z,212.00
2019-06-07T17:41:20.852Z,228.00
2019-06-07T17:42:21.156Z,220.00
2019-06-07T17:43:22.061Z,228.00
2019-06-07T17:44:20.880Z,212.00
2019-06-07T17:45:21.240Z,184.00
2019-06-07T17:46:20.827Z,160.00
2019-06-07T17:47:20.912Z,144.00
2019-06-07T17:48:23.869Z,140.00
2019-06-07T17:49:20.772Z,140.00
2019-06-07T17:50:20.804Z,132.00
2019-06-07T17:51:20.743Z,112.00
2019-06-07T17:52:20.758Z,104.00
2019-06-07T17:53:20.896Z,100.00
2019-06-07T17:54:20.710Z,100.00
2019-06-07T17:55:20.701Z,96.00
2019-06-07T17:56:20.721Z,108.00
2019-06-07T17:57:20.694Z,108.00
2019-06-07T17:58:20.665Z,104.00
2019-06-07T17:59:20.656Z,96.00
2019-06-07T18:00:29.240Z,88.00
2019-06-07T18:01:21.630Z,80.00
2019-06-07T18:02:20.623Z,76.00
2019-06-07T18:03:20.613Z,80.00
2019-06-07T18:04:20.599Z,76.00
2019-06-07T18:05:20.704Z,60.00
2019-06-07T18:06:20.577Z,52.00
2019-06-07T18:07:20.565Z,52.00
2019-06-07T18:08:20.632Z,52.00
2019-06-07T18:09:20.545Z,48.00
2019-06-07T18:10:20.593Z,40.00
2019-06-07T18:11:20.542Z,36.00
2019-06-07T18:12:20.532Z,40.00
2019-06-07T18:13:20.506Z,36.00
2019-06-07T18:14:20.549Z,36.00
2019-06-07T18:15:20.522Z,40.00
2019-06-07T18:16:20.503Z,48.00
2019-06-07T18:17:33.736Z,52.00
2019-06-07T18:18:21.477Z,56.00
2019-06-07T18:19:20.440Z,56.00
2019-06-07T18:20:20.438Z,68.00
2019-06-07T18:21:20.499Z,68.00
2019-06-07T18:22:20.427Z,68.00
2019-06-07T18:23:20.393Z,72.00
2019-06-07T18:24:20.394Z,80.00
2019-06-07T18:25:20.373Z,76.00
2019-06-07T18:26:20.439Z,68.00
2019-06-07T18:27:20.351Z,56.00